Time;durP1;ratioP1;P1;durP2;ratioP2;P2;SDS_P1;SDS_P2;PMS_P1;PMS_P2;Temp;Humidity;BMP_temperature;BMP_pressure;BME280_temperature;BME280_humidity;BME280_pressure;Samples;Min_cycle;Max_cycle;Signal;HPM_P1;HPM_P2
2021/12/31 00:00:06;;;;;;;3.88;1.95;;;13.60;99.90;;;;;;5099138;28;20038;-82
2021/12/31 00:02:32;;;;;;;2.03;1.50;;;13.50;99.90;;;;;;5099086;28;20031;-82
2021/12/31 00:04:58;;;;;;;2.67;1.38;;;13.50;99.90;;;;;;5098260;28;20023;-82
2021/12/31 00:07:23;;;;;;;3.70;1.50;;;13.50;99.90;;;;;;5098861;28;20110;-82
2021/12/31 00:09:49;;;;;;;3.53;1.70;;;13.50;99.90;;;;;;5098349;28;20024;-82
2021/12/31 00:12:15;;;;;;;4.57;1.48;;;13.50;99.90;;;;;;5098760;28;20486;-82
2021/12/31 00:14:40;;;;;;;3.00;1.30;;;13.50;99.90;;;;;;5098209;28;20090;-82
2021/12/31 00:17:07;;;;;;;2.58;1.45;;;13.50;99.90;;;;;;5098975;28;20024;-82
2021/12/31 00:19:38;;;;;;;2.30;1.50;;;13.50;99.90;;;;;;5098571;28;20024;-82
2021/12/31 00:22:23;;;;;;;3.72;1.75;;;13.50;99.90;;;;;;5098162;28;20142;-82
2021/12/31 00:24:49;;;;;;;2.78;1.70;;;13.40;99.90;;;;;;5098004;28;20038;-82
2021/12/31 00:27:15;;;;;;;3.85;1.60;;;13.50;99.90;;;;;;5098473;28;20024;-82
2021/12/31 00:29:40;;;;;;;2.78;1.60;;;13.40;99.90;;;;;;5115969;28;20062;-82
2021/12/31 00:32:06;;;;;;;2.63;1.55;;;13.40;99.90;;;;;;5098487;28;20044;-82
2021/12/31 00:34:31;;;;;;;2.92;1.60;;;13.40;99.90;;;;;;5098525;28;20052;-83
2021/12/31 00:36:57;;;;;;;2.78;2.10;;;13.40;99.90;;;;;;5097636;28;20028;-82
2021/12/31 00:39:23;;;;;;;3.67;2.00;;;13.40;99.90;;;;;;5098289;28;20028;-82
2021/12/31 00:41:48;;;;;;;6.70;2.25;;;13.40;99.90;;;;;;5097786;28;20031;-82
2021/12/31 00:44:14;;;;;;;4.53;2.10;;;13.30;99.90;;;;;;5098079;28;20023;-82
2021/12/31 00:46:40;;;;;;;3.20;1.98;;;13.40;99.90;;;;;;5097622;28;20023;-82
2021/12/31 00:49:06;;;;;;;4.95;2.33;;;13.30;99.90;;;;;;5097780;28;20026;-82
2021/12/31 00:51:33;;;;;;;4.47;2.00;;;13.30;99.90;;;;;;5097843;28;20419;-83
2021/12/31 00:53:59;;;;;;;3.30;1.88;;;13.30;99.90;;;;;;5097504;28;20215;-83
2021/12/31 00:56:24;;;;;;;8.27;2.08;;;13.30;99.90;;;;;;5097697;28;20033;-83
2021/12/31 00:58:50;;;;;;;6.22;2.25;;;13.30;99.90;;;;;;5097342;28;20027;-82
2021/12/31 01:01:19;;;;;;;4.03;2.15;;;13.30;99.90;;;;;;5097972;28;20023;-83
2021/12/31 01:03:46;;;;;;;5.18;2.40;;;13.30;99.90;;;;;;5097101;28;20027;-82
2021/12/31 01:06:12;;;;;;;3.17;1.95;;;13.20;99.90;;;;;;5097679;28;20035;-82
2021/12/31 01:08:39;;;;;;;4.53;2.25;;;13.20;99.90;;;;;;5096457;28;20051;-82
2021/12/31 01:11:04;;;;;;;5.15;2.30;;;13.20;99.90;;;;;;5097621;28;20493;-83
2021/12/31 01:13:46;;;;;;;6.78;2.50;;;13.20;99.90;;;;;;5097782;28;20035;-83
2021/12/31 01:16:12;;;;;;;;;;;13.20;99.90;;;;;;5097994;28;20475;-83
2021/12/31 01:21:21;;;;;;;5.82;1.95;;;13.20;99.90;;;;;;5115769;28;20027;-82
2021/12/31 01:23:51;;;;;;;5.68;2.30;;;13.10;99.90;;;;;;5096829;28;20094;-82
2021/12/31 01:26:17;;;;;;;4.70;2.33;;;13.10;99.90;;;;;;5115438;28;20027;-82
2021/12/31 01:28:43;;;;;;;4.20;2.10;;;13.10;99.90;;;;;;5096817;28;20468;-81
2021/12/31 01:31:09;;;;;;;5.10;2.13;;;13.10;99.90;;;;;;5096911;28;20041;-82
2021/12/31 01:33:34;;;;;;;5.20;2.42;;;13.10;99.90;;;;;;5097264;28;20027;-83
2021/12/31 01:36:00;;;;;;;6.07;1.88;;;13.10;99.90;;;;;;5114654;28;20380;-82
2021/12/31 01:38:26;;;;;;;4.38;2.50;;;13.10;99.90;;;;;;5097032;28;20047;-82
2021/12/31 01:40:53;;;;;;;5.65;2.67;;;13.10;99.90;;;;;;5096798;28;20024;-82
2021/12/31 01:43:19;;;;;;;4.25;2.60;;;13.10;99.90;;;;;;5096952;28;20502;-82
2021/12/31 01:45:55;;;;;;;4.28;2.30;;;13.00;99.90;;;;;;5096490;28;20030;-82
2021/12/31 01:48:32;;;;;;;3.70;2.15;;;13.00;99.90;;;;;;5096734;28;20020;-83
2021/12/31 01:50:58;;;;;;;4.57;2.17;;;13.00;99.90;;;;;;5096398;28;20023;-82
2021/12/31 01:53:25;;;;;;;3.92;1.77;;;12.90;99.90;;;;;;5097012;28;20100;-82
2021/12/31 01:55:52;;;;;;;3.03;1.90;;;12.90;99.90;;;;;;5096440;28;20077;-82
2021/12/31 01:58:22;;;;;;;6.13;2.08;;;12.90;99.90;;;;;;5096787;28;20023;-82
2021/12/31 02:00:47;;;;;;;4.15;2.30;;;12.80;99.90;;;;;;5096248;28;20035;-82
2021/12/31 02:03:13;;;;;;;6.10;2.40;;;12.90;99.90;;;;;;5096243;28;20035;-82
2021/12/31 02:05:39;;;;;;;4.72;2.45;;;12.80;99.90;;;;;;5114616;28;20027;-82
2021/12/31 02:08:05;;;;;;;6.18;2.40;;;12.80;99.90;;;;;;5096377;28;20028;-82
2021/12/31 02:10:31;;;;;;;3.42;2.33;;;12.70;99.90;;;;;;5096533;28;20031;-83
2021/12/31 02:12:57;;;;;;;4.70;2.13;;;12.70;99.90;;;;;;5096231;28;20361;-83
2021/12/31 02:15:25;;;;;;;4.57;2.20;;;12.60;99.90;;;;;;5096701;28;20032;-83
2021/12/31 02:17:51;;;;;;;7.00;2.35;;;12.60;99.90;;;;;;5096027;28;20045;-82
2021/12/31 02:20:18;;;;;;;4.90;2.17;;;12.50;99.90;;;;;;5096452;28;20081;-82
2021/12/31 02:22:53;;;;;;;3.58;2.05;;;12.50;99.90;;;;;;5095982;28;20130;-81
2021/12/31 02:25:22;;;;;;;5.13;2.10;;;12.50;99.90;;;;;;5096634;28;20049;-82
2021/12/31 02:27:47;;;;;;;4.50;2.22;;;12.50;99.90;;;;;;5095862;28;20072;-82
2021/12/31 02:30:13;;;;;;;4.20;2.05;;;12.40;99.90;;;;;;5096272;28;20031;-83
2021/12/31 02:32:39;;;;;;;4.70;1.92;;;12.40;99.90;;;;;;5096508;28;20153;-82
2021/12/31 02:35:07;;;;;;;5.45;2.15;;;12.40;99.90;;;;;;5095883;28;20027;-83
2021/12/31 02:37:33;;;;;;;3.58;2.25;;;12.30;99.90;;;;;;5096016;28;20055;-82
2021/12/31 02:40:02;;;;;;;5.32;2.55;;;12.30;99.90;;;;;;5095403;28;20055;-82
2021/12/31 02:42:28;;;;;;;4.85;2.20;;;12.30;99.90;;;;;;5096633;28;20062;-83
2021/12/31 02:44:55;;;;;;;2.90;1.83;;;12.30;99.90;;;;;;5096030;28;20088;-81
2021/12/31 02:47:21;;;;;;;5.40;2.10;;;12.20;99.90;;;;;;5096210;28;20035;-82
2021/12/31 02:49:48;;;;;;;4.30;1.90;;;12.20;99.90;;;;;;5095766;28;20028;-82
2021/12/31 02:52:15;;;;;;;7.50;2.38;;;12.20;99.90;;;;;;5096246;28;20035;-82
2021/12/31 02:54:44;;;;;;;3.78;1.92;;;12.20;99.90;;;;;;5096003;28;20032;-82
2021/12/31 02:57:12;;;;;;;5.18;2.33;;;12.20;99.90;;;;;;5113842;28;20020;-83
2021/12/31 02:59:38;;;;;;;7.47;2.03;;;12.20;99.90;;;;;;5113988;28;20103;-82
2021/12/31 03:02:06;;;;;;;3.05;1.75;;;12.20;99.90;;;;;;5095670;28;20058;-83
2021/12/31 03:04:34;;;;;;;4.97;2.10;;;12.20;99.90;;;;;;5096232;28;20058;-83
2021/12/31 03:07:03;;;;;;;6.53;2.28;;;12.20;99.90;;;;;;5095510;28;20023;-82
2021/12/31 03:09:28;;;;;;;5.78;1.95;;;12.20;99.90;;;;;;5096088;28;20051;-83
2021/12/31 03:11:57;;;;;;;6.35;2.00;;;12.10;99.90;;;;;;5095600;28;20515;-82
2021/12/31 03:14:25;;;;;;;4.00;1.65;;;12.10;99.90;;;;;;5096205;28;20180;-82
2021/12/31 03:16:50;;;;;;;4.13;1.52;;;12.10;99.90;;;;;;5095633;28;20023;-82
2021/12/31 03:19:17;;;;;;;4.00;1.80;;;12.10;99.90;;;;;;5096113;28;20471;-83
2021/12/31 03:21:43;;;;;;;3.13;2.05;;;12.00;99.90;;;;;;5113739;28;20023;-83
2021/12/31 03:24:08;;;;;;;5.05;2.22;;;12.10;99.90;;;;;;5113679;28;20036;-83
2021/12/31 03:26:34;;;;;;;3.53;1.77;;;12.10;99.90;;;;;;5096368;28;20098;-83
2021/12/31 03:29:01;;;;;;;5.63;2.03;;;12.00;99.90;;;;;;5095493;28;20027;-83
2021/12/31 03:31:27;;;;;;;3.83;2.00;;;12.00;99.90;;;;;;5114492;28;20438;-82
2021/12/31 03:33:53;;;;;;;3.08;1.70;;;12.00;99.90;;;;;;5099071;28;20026;-82
2021/12/31 03:36:18;;;;;;;3.78;1.95;;;11.90;99.90;;;;;;5117622;28;20442;-83
2021/12/31 03:38:44;;;;;;;6.05;1.90;;;11.90;99.90;;;;;;5099383;28;20036;-82
2021/12/31 03:41:10;;;;;;;3.08;2.28;;;11.90;99.90;;;;;;5099031;28;20035;-83
2021/12/31 03:43:35;;;;;;;7.55;2.58;;;11.90;99.90;;;;;;5099462;28;20110;-83
2021/12/31 03:46:01;;;;;;;7.43;2.45;;;11.90;99.90;;;;;;5099073;28;20114;-83
2021/12/31 03:48:27;;;;;;;5.35;2.33;;;11.80;99.90;;;;;;5099393;28;20055;-83
2021/12/31 03:50:52;;;;;;;3.85;2.10;;;11.80;99.90;;;;;;5098758;28;20120;-82
2021/12/31 03:53:19;;;;;;;3.58;2.22;;;11.80;99.90;;;;;;5099193;28;20480;-83
2021/12/31 03:55:45;;;;;;;4.75;2.20;;;11.80;99.90;;;;;;5098962;28;20472;-83
2021/12/31 03:58:11;;;;;;;4.95;2.10;;;11.70;99.90;;;;;;5116646;28;20031;-83
2021/12/31 04:00:36;;;;;;;2.83;1.73;;;11.60;99.90;;;;;;5098735;28;20034;-83
2021/12/31 04:03:10;;;;;;;4.20;2.22;;;11.40;99.90;;;;;;5116109;28;20024;-83
2021/12/31 04:05:38;;;;;;;5.70;2.03;;;11.30;99.90;;;;;;5098728;28;20062;-83
2021/12/31 04:08:05;;;;;;;3.42;1.80;;;11.30;99.90;;;;;;5116417;28;20084;-83
2021/12/31 04:10:31;;;;;;;3.92;2.30;;;11.10;99.90;;;;;;5098739;28;20031;-83
2021/12/31 04:12:56;;;;;;;8.07;4.30;;;11.10;99.90;;;;;;5098045;28;20027;-83
2021/12/31 04:15:22;;;;;;;11.10;4.43;;;11.00;99.90;;;;;;5098637;28;20023;-83
2021/12/31 04:17:48;;;;;;;8.55;4.55;;;10.90;99.90;;;;;;5116590;28;20354;-83
2021/12/31 04:20:20;;;;;;;6.95;4.85;;;10.90;99.90;;;;;;5098201;28;20055;-83
2021/12/31 04:22:57;;;;;;;6.97;3.47;;;10.80;99.90;;;;;;5098506;28;20084;-83
2021/12/31 04:25:24;;;;;;;6.50;3.15;;;10.80;99.90;;;;;;5098973;28;20104;-83
2021/12/31 04:27:51;;;;;;;5.53;3.40;;;10.70;99.90;;;;;;5098584;28;20027;-83
2021/12/31 04:30:17;;;;;;;5.72;2.63;;;10.70;99.90;;;;;;5098548;28;20028;-83
2021/12/31 04:32:43;;;;;;;4.18;2.80;;;10.80;99.90;;;;;;5098467;28;20139;-82
2021/12/31 04:35:11;;;;;;;4.65;2.30;;;10.80;99.90;;;;;;5097872;28;20095;-83
2021/12/31 04:37:38;;;;;;;5.80;2.33;;;10.80;99.90;;;;;;5098181;28;20028;-82
2021/12/31 04:40:05;;;;;;;4.53;2.13;;;10.90;99.90;;;;;;5097810;28;20031;-82
2021/12/31 04:42:30;;;;;;;4.82;2.38;;;11.00;99.90;;;;;;5098159;28;20063;-82
2021/12/31 04:44:57;;;;;;;6.43;2.58;;;10.90;99.90;;;;;;5097654;28;20039;-82
2021/12/31 04:47:23;;;;;;;7.60;2.88;;;10.90;99.90;;;;;;5098071;28;20031;-83
2021/12/31 04:49:49;;;;;;;5.93;2.60;;;10.90;99.90;;;;;;5116331;28;20024;-83
2021/12/31 04:52:14;;;;;;;5.32;2.42;;;10.90;99.90;;;;;;5115428;28;20043;-82
2021/12/31 04:54:40;;;;;;;4.85;2.83;;;10.90;99.90;;;;;;5098143;28;20020;-83
2021/12/31 04:57:05;;;;;;;6.32;2.60;;;10.80;99.90;;;;;;5115167;28;20506;-82
2021/12/31 04:59:31;;;;;;;4.25;2.50;;;10.80;99.90;;;;;;5098161;28;20142;-82
2021/12/31 05:01:57;;;;;;;5.40;2.40;;;10.80;99.90;;;;;;5097132;28;20390;-82
2021/12/31 05:04:22;;;;;;;7.30;2.65;;;10.70;99.90;;;;;;5097727;28;20187;-82
2021/12/31 05:06:50;;;;;;;5.70;2.60;;;10.70;99.90;;;;;;5097921;28;20481;-83
2021/12/31 05:09:16;;;;;;;5.43;2.60;;;10.70;99.90;;;;;;5097436;28;20119;-82
2021/12/31 05:11:42;;;;;;;4.47;2.47;;;10.70;99.90;;;;;;5097674;28;20034;-83
2021/12/31 05:14:09;;;;;;;4.00;2.55;;;10.70;99.90;;;;;;5097060;28;20073;-83
2021/12/31 05:16:35;;;;;;;7.03;2.50;;;10.70;99.90;;;;;;5115418;28;20070;-83
2021/12/31 05:19:04;;;;;;;5.30;2.90;;;10.70;99.90;;;;;;5097441;28;20020;-83
2021/12/31 05:21:31;;;;;;;5.05;2.60;;;10.60;99.90;;;;;;5097696;28;20028;-83
2021/12/31 05:23:57;;;;;;;5.05;2.80;;;10.60;99.90;;;;;;5096937;28;20130;-83
2021/12/31 05:26:23;;;;;;;4.88;2.70;;;10.50;99.90;;;;;;5097467;28;20357;-83
2021/12/31 05:28:49;;;;;;;6.25;2.75;;;10.50;99.90;;;;;;5097099;28;20168;-82
2021/12/31 05:31:15;;;;;;;4.13;2.80;;;10.50;99.90;;;;;;5096706;28;20039;-83
2021/12/31 05:33:41;;;;;;;3.53;2.50;;;10.50;99.90;;;;;;5097727;28;20126;-83
2021/12/31 05:36:06;;;;;;;4.20;2.47;;;10.40;99.90;;;;;;5096775;28;20440;-83
2021/12/31 05:38:32;;;;;;;5.85;2.88;;;10.40;99.90;;;;;;5115217;28;20484;-83
2021/12/31 05:40:58;;;;;;;5.47;2.70;;;10.30;99.90;;;;;;5096655;28;20024;-83
2021/12/31 05:43:24;;;;;;;5.75;2.55;;;10.20;99.90;;;;;;5097175;28;20525;-83
2021/12/31 05:45:49;;;;;;;5.88;2.08;;;10.10;99.90;;;;;;5097025;28;20023;-83
2021/12/31 05:48:15;;;;;;;5.00;2.60;;;10.10;99.90;;;;;;5096725;28;20484;-83
2021/12/31 05:50:41;;;;;;;5.45;2.47;;;10.10;99.90;;;;;;5097121;28;20465;-83
2021/12/31 05:53:06;;;;;;;4.78;2.55;;;10.10;99.90;;;;;;5096600;28;20035;-83
2021/12/31 05:55:32;;;;;;;6.45;2.70;;;10.10;99.90;;;;;;5096705;28;20061;-83
2021/12/31 05:57:58;;;;;;;5.90;2.60;;;10.10;99.90;;;;;;5096226;28;20076;-82
2021/12/31 06:00:24;;;;;;;7.60;3.08;;;10.10;99.90;;;;;;5096980;28;20027;-83
2021/12/31 06:02:50;;;;;;;4.43;2.47;;;10.20;99.90;;;;;;5096710;28;20076;-83
2021/12/31 06:05:16;;;;;;;4.05;2.63;;;10.20;99.90;;;;;;5096154;28;20031;-83
2021/12/31 06:07:41;;;;;;;8.73;3.13;;;10.20;99.90;;;;;;5114480;28;20023;-83
2021/12/31 06:10:08;;;;;;;7.47;3.30;;;10.20;99.90;;;;;;5096173;28;20062;-83
2021/12/31 06:12:35;;;;;;;5.28;2.83;;;10.10;99.90;;;;;;5096838;28;20040;-83
2021/12/31 06:15:04;;;;;;;5.68;2.58;;;10.10;99.90;;;;;;5096438;28;20027;-82
2021/12/31 06:17:31;;;;;;;5.72;2.72;;;10.20;99.90;;;;;;5096605;28;20376;-83
2021/12/31 06:19:56;;;;;;;4.53;2.63;;;10.00;99.90;;;;;;5114576;28;20099;-83
2021/12/31 06:22:23;;;;;;;5.65;2.80;;;10.00;99.90;;;;;;5113891;28;20083;-83
2021/12/31 06:24:50;;;;;;;5.03;2.78;;;9.90;99.90;;;;;;5096625;28;20028;-83
2021/12/31 06:27:16;;;;;;;3.90;2.40;;;9.90;99.90;;;;;;5096046;28;20045;-83
2021/12/31 06:29:42;;;;;;;5.53;2.40;;;9.80;99.90;;;;;;5096380;28;20042;-83
2021/12/31 06:32:08;;;;;;;7.05;2.10;;;9.80;99.90;;;;;;5095881;28;20039;-83
2021/12/31 06:34:33;;;;;;;4.38;1.90;;;9.70;99.90;;;;;;5096545;28;20400;-83
2021/12/31 06:36:59;;;;;;;2.80;1.90;;;9.70;99.90;;;;;;5096157;28;20053;-82
2021/12/31 06:39:26;;;;;;;3.88;2.33;;;9.60;99.90;;;;;;5096647;28;20076;-83
2021/12/31 06:41:52;;;;;;;3.92;1.67;;;9.60;99.90;;;;;;5096223;28;20027;-83
2021/12/31 06:44:18;;;;;;;6.40;2.03;;;9.60;99.90;;;;;;5113666;28;20469;-83
2021/12/31 06:46:43;;;;;;;2.78;1.73;;;9.60;99.90;;;;;;5114442;28;20073;-83
2021/12/31 06:49:09;;;;;;;2.70;1.80;;;9.50;99.90;;;;;;5095564;28;20024;-82
2021/12/31 06:51:35;;;;;;;2.45;1.70;;;9.40;99.90;;;;;;5114314;28;20078;-83
2021/12/31 06:54:01;;;;;;;2.53;1.55;;;9.40;99.90;;;;;;5095976;28;20053;-81
2021/12/31 06:56:27;;;;;;;1.95;1.50;;;9.40;99.90;;;;;;5096624;28;20020;-82
2021/12/31 06:58:52;;;;;;;3.45;2.20;;;9.30;99.90;;;;;;5096530;28;20036;-82
2021/12/31 07:01:18;;;;;;;2.88;1.85;;;9.20;99.90;;;;;;5095718;28;20059;-83
2021/12/31 07:03:43;;;;;;;2.53;1.92;;;9.10;99.90;;;;;;5095999;28;20122;-82
2021/12/31 07:06:09;;;;;;;4.30;2.05;;;9.10;99.90;;;;;;5096075;28;20024;-82
2021/12/31 07:08:34;;;;;;;3.75;1.75;;;9.00;99.90;;;;;;5118219;28;20024;-83
2021/12/31 07:11:00;;;;;;;3.03;1.70;;;8.90;99.90;;;;;;5099914;28;20070;-82
2021/12/31 07:13:26;;;;;;;3.55;1.52;;;8.90;99.90;;;;;;5099939;28;20069;-82
2021/12/31 07:15:52;;;;;;;2.92;1.45;;;8.80;99.90;;;;;;5099881;28;20522;-83
2021/12/31 07:18:19;;;;;;;2.22;1.45;;;8.80;99.90;;;;;;5099561;28;20119;-82
2021/12/31 07:20:45;;;;;;;2.45;1.50;;;8.80;99.90;;;;;;5117917;28;20486;-82
2021/12/31 07:23:14;;;;;;;2.53;1.58;;;8.80;99.90;;;;;;5098732;28;20400;-82
2021/12/31 07:25:40;;;;;;;2.25;1.20;;;8.70;99.90;;;;;;5117840;28;20388;-82
2021/12/31 07:28:08;;;;;;;1.55;1.00;;;8.70;99.90;;;;;;5099001;28;20452;-82
2021/12/31 07:30:34;;;;;;;2.00;1.20;;;8.60;99.90;;;;;;5099667;28;20032;-82
2021/12/31 07:33:00;;;;;;;2.10;1.15;;;8.50;99.90;;;;;;5099253;28;20039;-83
2021/12/31 07:35:26;;;;;;;2.03;1.00;;;8.50;99.90;;;;;;5099106;28;20034;-82
2021/12/31 07:37:55;;;;;;;2.67;1.50;;;8.40;99.90;;;;;;5099775;28;20443;-82
2021/12/31 07:40:39;;;;;;;2.50;1.42;;;8.40;99.90;;;;;;5099055;28;20034;-82
2021/12/31 07:43:07;;;;;;;2.88;1.45;;;8.30;99.90;;;;;;5117171;28;20042;-82
2021/12/31 07:45:32;;;;;;;2.63;1.65;;;8.30;99.90;;;;;;5099538;28;20023;-82
2021/12/31 07:47:59;;;;;;;3.55;2.50;;;8.30;99.90;;;;;;5099314;28;20027;-83
2021/12/31 07:50:25;;;;;;;4.18;3.00;;;8.20;99.90;;;;;;5116844;28;20028;-82
2021/12/31 07:52:50;;;;;;;2.65;2.28;;;8.20;99.90;;;;;;5099037;28;20032;-82
2021/12/31 07:55:17;;;;;;;3.50;2.45;;;8.20;99.90;;;;;;5098577;28;20070;-82
2021/12/31 07:57:43;;;;;;;4.90;2.40;;;8.20;99.90;;;;;;5099105;28;20050;-82
2021/12/31 08:00:09;;;;;;;5.25;2.75;;;8.40;99.90;;;;;;5098525;28;20461;-82
2021/12/31 08:02:34;;;;;;;3.83;2.50;;;8.50;99.90;;;;;;5117001;28;20035;-82
2021/12/31 08:05:00;;;;;;;3.05;2.00;;;8.50;99.90;;;;;;5099146;28;20119;-82
2021/12/31 08:07:26;;;;;;;3.28;2.40;;;8.50;99.90;;;;;;5098457;28;20114;-83
2021/12/31 08:09:51;;;;;;;3.45;2.45;;;8.60;99.90;;;;;;5098746;28;20385;-83
2021/12/31 08:12:17;;;;;;;5.53;2.72;;;8.60;99.90;;;;;;5116182;28;20039;-83
2021/12/31 08:14:43;;;;;;;4.80;2.70;;;8.60;99.90;;;;;;5098730;28;20023;-83
2021/12/31 08:17:08;;;;;;;4.50;2.55;;;8.70;99.90;;;;;;5097754;28;20057;-83
2021/12/31 08:19:34;;;;;;;3.47;2.22;;;8.80;99.90;;;;;;5098845;28;20020;-83
2021/12/31 08:21:59;;;;;;;4.72;2.65;;;8.80;99.90;;;;;;5098598;28;20476;-83
2021/12/31 08:24:25;;;;;;;6.65;2.50;;;8.80;99.90;;;;;;5098322;28;20436;-83
2021/12/31 08:26:51;;;;;;;2.58;1.83;;;8.80;99.90;;;;;;5098692;28;20051;-83
2021/12/31 08:29:18;;;;;;;2.50;1.90;;;8.80;99.90;;;;;;5098019;28;20209;-83
2021/12/31 08:31:44;;;;;;;5.00;2.13;;;8.80;99.90;;;;;;5098223;28;20555;-83
2021/12/31 08:34:11;;;;;;;2.92;1.90;;;8.80;99.90;;;;;;5097691;28;20055;-82
2021/12/31 08:36:36;;;;;;;5.10;2.20;;;8.90;99.90;;;;;;5098564;28;20063;-83
2021/12/31 08:39:04;;;;;;;3.45;1.65;;;8.90;99.90;;;;;;5098687;28;20026;-85
2021/12/31 08:41:30;;;;;;;3.50;2.03;;;9.00;99.90;;;;;;5097948;28;20114;-84
2021/12/31 08:43:56;;;;;;;4.07;2.03;;;9.10;99.90;;;;;;5098322;28;20027;-85
2021/12/31 08:46:22;;;;;;;6.28;2.58;;;9.10;99.90;;;;;;5098009;28;20384;-84
2021/12/31 08:48:48;;;;;;;2.85;1.83;;;9.10;99.90;;;;;;5098492;28;20024;-84
2021/12/31 08:51:13;;;;;;;3.90;2.70;;;9.20;99.90;;;;;;5097701;28;20081;-84
2021/12/31 08:53:39;;;;;;;6.28;2.63;;;9.30;99.90;;;;;;5098111;28;20027;-84
2021/12/31 08:56:05;;;;;;;3.72;2.20;;;9.20;99.90;;;;;;5116069;28;20020;-84
2021/12/31 08:58:31;;;;;;;4.47;2.00;;;9.30;99.90;;;;;;5115556;28;20107;-84
2021/12/31 09:00:56;;;;;;;3.83;1.80;;;9.30;99.90;;;;;;5098132;28;20058;-84
2021/12/31 09:03:22;;;;;;;2.90;1.92;;;9.30;99.90;;;;;;5097268;28;20032;-84
2021/12/31 09:05:48;;;;;;;2.70;1.80;;;9.40;99.90;;;;;;5097911;28;20027;-84
2021/12/31 09:08:14;;;;;;;4.40;1.95;;;9.40;99.90;;;;;;5115634;28;20093;-84
2021/12/31 09:10:39;;;;;;;3.75;1.90;;;9.40;99.90;;;;;;5097833;28;20095;-84
2021/12/31 09:13:05;;;;;;;2.40;2.03;;;9.50;99.90;;;;;;5097763;28;20062;-84
2021/12/31 09:15:31;;;;;;;4.22;1.85;;;9.50;99.90;;;;;;5096866;28;20020;-84
2021/12/31 09:17:56;;;;;;;4.53;2.38;;;9.50;99.90;;;;;;5097862;28;20423;-84
2021/12/31 09:20:22;;;;;;;4.90;3.20;;;9.50;99.90;;;;;;5097019;28;20096;-84
2021/12/31 09:22:48;;;;;;;5.60;3.08;;;9.60;99.90;;;;;;5097046;28;20051;-84
2021/12/31 09:25:15;;;;;;;3.42;2.33;;;9.60;99.90;;;;;;5096863;28;20036;-84
2021/12/31 09:27:41;;;;;;;5.32;2.53;;;9.60;99.90;;;;;;5097528;28;20024;-82
2021/12/31 09:30:08;;;;;;;4.15;2.30;;;9.60;99.90;;;;;;5096860;28;20114;-83
2021/12/31 09:32:34;;;;;;;3.65;2.58;;;9.50;99.90;;;;;;5115243;28;20035;-83
2021/12/31 09:35:00;;;;;;;5.88;2.92;;;9.60;99.90;;;;;;5097568;28;20028;-83
2021/12/31 09:37:25;;;;;;;8.63;3.17;;;9.60;99.90;;;;;;5114826;28;20051;-83
2021/12/31 09:39:51;;;;;;;5.38;3.33;;;9.60;99.90;;;;;;5097010;28;20027;-84
2021/12/31 09:42:17;;;;;;;6.35;3.50;;;9.60;99.90;;;;;;5097048;28;20032;-84
2021/12/31 09:44:48;;;;;;;5.03;2.90;;;9.70;99.90;;;;;;5097163;28;20460;-83
2021/12/31 09:47:16;;;;;;;4.43;3.13;;;9.80;99.90;;;;;;5096638;28;20031;-83
2021/12/31 09:49:42;;;;;;;6.32;3.33;;;9.80;99.90;;;;;;5114657;28;20382;-84
2021/12/31 09:52:09;;;;;;;6.13;3.95;;;9.80;99.90;;;;;;5096606;28;20042;-84
2021/12/31 09:54:39;;;;;;;6.88;4.07;;;9.90;99.90;;;;;;5114747;28;20015;-84
2021/12/31 09:57:04;;;;;;;8.02;3.97;;;10.00;99.90;;;;;;5096995;28;20027;-84
2021/12/31 09:59:30;;;;;;;5.43;3.25;;;10.10;99.90;;;;;;5096234;28;20456;-84
2021/12/31 10:01:56;;;;;;;6.57;3.10;;;10.10;99.90;;;;;;5114705;28;20036;-84
2021/12/31 10:04:22;;;;;;;7.05;2.63;;;10.10;99.90;;;;;;5096483;28;20020;-83
2021/12/31 10:07:08;;;;;;;5.80;3.35;;;10.10;99.90;;;;;;5096941;28;20133;-84
2021/12/31 10:09:35;;;;;;;6.38;3.58;;;10.10;99.90;;;;;;5096104;28;20118;-84
2021/12/31 10:12:01;;;;;;;5.25;3.13;;;10.00;99.90;;;;;;5096239;28;20078;-84
2021/12/31 10:14:38;;;;;;;3.83;2.85;;;10.00;99.90;;;;;;5096303;28;20480;-83
2021/12/31 10:17:08;;;;;;;7.43;2.92;;;10.20;99.90;;;;;;5096181;28;20035;-83
2021/12/31 10:19:34;;;;;;;4.97;2.80;;;10.20;99.90;;;;;;5096033;28;20065;-84
2021/12/31 10:22:00;;;;;;;6.25;3.25;;;10.20;99.90;;;;;;5096344;28;20043;-83
2021/12/31 10:24:33;;;;;;;4.28;2.90;;;10.20;99.90;;;;;;5113997;28;20099;-83
2021/12/31 10:27:02;;;;;;;38.35;23.63;;;10.20;99.90;;;;;;5114650;28;20024;-84
2021/12/31 10:29:28;;;;;;;10.55;7.43;;;10.20;99.90;;;;;;5096101;28;20024;-83
2021/12/31 10:31:54;;;;;;;9.57;5.45;;;10.20;99.90;;;;;;5096457;28;20503;-82
2021/12/31 10:34:36;;;;;;;8.10;4.00;;;10.30;99.90;;;;;;5114139;28;20028;-83
2021/12/31 10:37:17;;;;;;;9.40;4.13;;;10.20;99.90;;;;;;5096199;28;20031;-83
2021/12/31 10:39:44;;;;;;;5.63;3.53;;;10.30;99.90;;;;;;5096128;28;20023;-83
2021/12/31 10:42:12;;;;;;;5.55;3.22;;;10.30;99.90;;;;;;5100339;28;20434;-84
2021/12/31 10:44:52;;;;;;;5.38;3.50;;;10.30;99.90;;;;;;5099924;28;20023;-84
2021/12/31 10:47:22;;;;;;;7.72;3.88;;;10.30;99.90;;;;;;5118082;28;20100;-84
2021/12/31 10:50:00;;;;;;;6.97;3.70;;;10.30;99.90;;;;;;5100457;28;20456;-83
2021/12/31 10:52:56;;;;;;;6.93;4.00;;;10.30;99.90;;;;;;5099787;28;20039;-83
2021/12/31 10:55:29;;;;;;;5.78;3.75;;;10.40;99.90;;;;;;5100020;28;20104;-84
2021/12/31 10:58:04;;;;;;;7.25;4.03;;;10.40;99.90;;;;;;5100633;28;20046;-83
2021/12/31 11:00:32;;;;;;;6.45;3.80;;;10.30;99.90;;;;;;5099821;28;20476;-83
2021/12/31 11:02:59;;;;;;;6.45;3.13;;;10.40;99.90;;;;;;5100142;28;20392;-84
2021/12/31 11:05:25;;;;;;;7.20;4.03;;;10.50;99.90;;;;;;5099822;28;20023;-84
2021/12/31 11:07:52;;;;;;;4.80;3.45;;;10.60;99.90;;;;;;5100450;28;20055;-83
2021/12/31 11:10:35;;;;;;;8.27;4.38;;;10.70;99.90;;;;;;5099840;28;20026;-85
2021/12/31 11:13:13;;;;;;;8.02;4.40;;;10.70;99.90;;;;;;5083222;28;20039;-84
2021/12/31 11:15:42;;;;;;;7.00;3.97;;;10.70;99.90;;;;;;5099445;28;20030;-84
2021/12/31 11:18:08;;;;;;;6.88;3.78;;;10.60;99.90;;;;;;5099922;28;20027;-83
2021/12/31 11:20:35;;;;;;;7.13;3.72;;;10.70;99.90;;;;;;5117537;28;20020;-84
2021/12/31 11:23:00;;;;;;;9.60;3.80;;;10.80;99.90;;;;;;5099748;28;20048;-84
2021/12/31 11:25:28;;;;;;;6.57;3.63;;;10.90;99.90;;;;;;5117316;28;20023;-84
2021/12/31 11:27:58;;;;;;;5.97;3.88;;;11.00;99.90;;;;;;5099710;28;20487;-83
2021/12/31 11:30:43;;;;;;;5.47;3.65;;;11.00;99.90;;;;;;5099142;28;20495;-82
2021/12/31 11:33:18;;;;;;;7.30;3.97;;;11.10;99.90;;;;;;5099327;28;20053;-84
2021/12/31 11:36:00;;;;;;;6.75;4.05;;;11.10;99.90;;;;;;5099638;28;20028;-83
2021/12/31 11:38:25;;;;;;;;;;;11.10;99.90;;;;;;5099426;28;20030;-84
2021/12/31 11:41:29;;;;;;;8.15;4.22;;;11.20;99.90;;;;;;5099731;28;19903;-84
2021/12/31 11:44:09;;;;;;;6.57;3.78;;;11.20;99.90;;;;;;5015104;28;20057;-83
2021/12/31 11:46:40;;;;;;;6.70;3.90;;;11.30;99.90;;;;;;5014698;28;20029;-84
2021/12/31 11:49:21;;;;;;;10.15;4.97;;;11.30;99.90;;;;;;5014952;28;20037;-83
2021/12/31 11:52:05;;;;;;;7.78;4.38;;;11.40;99.90;;;;;;5014359;28;20045;-84
2021/12/31 11:54:32;;;;;;;9.63;4.53;;;11.50;99.90;;;;;;5014383;28;20594;-83
2021/12/31 11:57:00;;;;;;;9.00;5.18;;;11.50;99.90;;;;;;5014819;28;20026;-85
2021/12/31 11:59:34;;;;;;;7.00;4.10;;;11.40;99.90;;;;;;4997763;28;20113;-83
2021/12/31 12:02:33;;;;;;;8.07;4.25;;;11.50;99.90;;;;;;5014667;28;20510;-83
2021/12/31 12:04:58;;;;;;;8.45;4.00;;;11.50;99.90;;;;;;5008935;28;20042;-83
2021/12/31 12:07:38;;;;;;;6.70;3.67;;;11.50;99.90;;;;;;5013899;28;20038;-83
2021/12/31 12:10:03;;;;;;;7.03;4.40;;;11.50;99.90;;;;;;5014352;28;20542;-83
2021/12/31 12:12:34;;;;;;;7.57;4.07;;;11.60;99.90;;;;;;5013847;28;20034;-84
2021/12/31 12:15:21;;;;;;;5.70;3.80;;;11.60;99.90;;;;;;5079022;28;20032;-83
2021/12/31 12:17:47;;;;;;;7.28;3.90;;;11.70;99.90;;;;;;5098603;28;20361;-83
2021/12/31 12:20:24;;;;;;;5.97;4.30;;;11.80;99.90;;;;;;5098515;28;20090;-83
2021/12/31 12:22:54;;;;;;;7.10;4.70;;;11.80;99.90;;;;;;5094786;28;20124;-83
2021/12/31 12:25:24;;;;;;;5.90;3.95;;;11.90;99.90;;;;;;5096115;28;20146;-82
2021/12/31 12:27:53;;;;;;;7.53;4.05;;;11.90;99.90;;;;;;5096985;28;20035;-83
2021/12/31 12:30:19;;;;;;;8.75;3.97;;;12.00;99.90;;;;;;5094910;28;20065;-83
2021/12/31 12:35:21;;;;;;;5.47;3.95;;;12.00;99.90;;;;;;5096111;28;20103;-83
2021/12/31 12:38:23;;;;;;;6.20;3.58;;;11.90;99.90;;;;;;5096218;28;20020;-84
2021/12/31 12:40:50;;;;;;;8.00;3.90;;;11.90;99.90;;;;;;5063438;28;20040;-83
2021/12/31 12:43:22;;;;;;;6.85;4.28;;;11.80;99.90;;;;;;5096615;28;20079;-83
2021/12/31 12:46:11;;;;;;;9.23;4.60;;;11.70;99.90;;;;;;5095290;28;20062;-83
2021/12/31 12:48:39;;;;;;;5.85;3.95;;;11.70;99.90;;;;;;5094335;28;20093;-83
2021/12/31 12:51:07;;;;;;;6.80;4.32;;;11.70;99.90;;;;;;5094253;28;20024;-83
2021/12/31 12:53:36;;;;;;;9.00;4.30;;;11.70;99.90;;;;;;5094115;28;20036;-83
2021/12/31 12:56:13;;;;;;;5.72;4.35;;;11.80;99.90;;;;;;5094775;28;20415;-84
2021/12/31 12:58:46;;;;;;;9.63;4.63;;;12.10;99.90;;;;;;5094240;28;20081;-84